sensor_id;sensor_type;location;lat;lon;timestamp;P1;durP1;ratioP1;P2;durP2;ratioP2
64932;SDS011;51446;53.850;10.662;2023-03-29T00:00:36;11.57;;;3.97;;
64932;SDS011;51446;53.850;10.662;2023-03-29T00:03:02;4.33;;;2.97;;
64932;SDS011;51446;53.850;10.662;2023-03-29T00:05:27;5.65;;;3.20;;
64932;SDS011;51446;53.850;10.662;2023-03-29T00:07:57;9.73;;;3.93;;
64932;SDS011;51446;53.850;10.662;2023-03-29T00:10:31;6.80;;;3.50;;
64932;SDS011;51446;53.850;10.662;2023-03-29T00:13:18;5.38;;;3.47;;
64932;SDS011;51446;53.850;10.662;2023-03-29T00:15:43;14.63;;;3.80;;
64932;SDS011;51446;53.850;10.662;2023-03-29T00:18:08;7.50;;;3.63;;
64932;SDS011;51446;53.850;10.662;2023-03-29T00:20:33;9.37;;;3.20;;
64932;SDS011;51446;53.850;10.662;2023-03-29T00:22:59;9.60;;;3.17;;
64932;SDS011;51446;53.850;10.662;2023-03-29T00:25:24;9.07;;;3.40;;
64932;SDS011;51446;53.850;10.662;2023-03-29T00:27:49;4.17;;;3.13;;
64932;SDS011;51446;53.850;10.662;2023-03-29T00:30:15;6.30;;;3.45;;
64932;SDS011;51446;53.850;10.662;2023-03-29T00:32:40;8.75;;;4.18;;
64932;SDS011;51446;53.850;10.662;2023-03-29T00:35:06;8.82;;;4.00;;
64932;SDS011;51446;53.850;10.662;2023-03-29T00:37:33;5.82;;;3.53;;
64932;SDS011;51446;53.850;10.662;2023-03-29T00:39:58;6.45;;;3.47;;
64932;SDS011;51446;53.850;10.662;2023-03-29T00:42:24;8.90;;;3.87;;
64932;SDS011;51446;53.850;10.662;2023-03-29T00:47:35;11.90;;;4.00;;
64932;SDS011;51446;53.850;10.662;2023-03-29T00:50:38;7.90;;;3.67;;
64932;SDS011;51446;53.850;10.662;2023-03-29T00:55:42;4.63;;;3.67;;
64932;SDS011;51446;53.850;10.662;2023-03-29T00:58:13;6.40;;;3.78;;
64932;SDS011;51446;53.850;10.662;2023-03-29T01:00:46;6.73;;;3.87;;
64932;SDS011;51446;53.850;10.662;2023-03-29T01:03:16;6.35;;;3.60;;
64932;SDS011;51446;53.850;10.662;2023-03-29T01:05:53;10.35;;;4.22;;
64932;SDS011;51446;53.850;10.662;2023-03-29T01:08:26;6.80;;;4.25;;
64932;SDS011;51446;53.850;10.662;2023-03-29T01:10:57;8.43;;;4.20;;
64932;SDS011;51446;53.850;10.662;2023-03-29T01:13:38;9.03;;;4.40;;
64932;SDS011;51446;53.850;10.662;2023-03-29T01:16:09;6.75;;;4.03;;
64932;SDS011;51446;53.850;10.662;2023-03-29T01:18:36;8.90;;;4.15;;
64932;SDS011;51446;53.850;10.662;2023-03-29T01:27:38;7.07;;;4.07;;
64932;SDS011;51446;53.850;10.662;2023-03-29T01:30:16;6.75;;;4.00;;
64932;SDS011;51446;53.850;10.662;2023-03-29T01:32:54;8.25;;;4.40;;
64932;SDS011;51446;53.850;10.662;2023-03-29T01:35:26;6.47;;;4.28;;
64932;SDS011;51446;53.850;10.662;2023-03-29T01:38:05;5.65;;;4.28;;
64932;SDS011;51446;53.850;10.662;2023-03-29T01:40:34;8.77;;;4.43;;
64932;SDS011;51446;53.850;10.662;2023-03-29T01:43:04;8.73;;;4.45;;
64932;SDS011;51446;53.850;10.662;2023-03-29T01:45:46;7.15;;;4.63;;
64932;SDS011;51446;53.850;10.662;2023-03-29T01:50:52;8.40;;;4.30;;
64932;SDS011;51446;53.850;10.662;2023-03-29T01:53:35;7.38;;;4.78;;
64932;SDS011;51446;53.850;10.662;2023-03-29T01:56:12;8.35;;;4.85;;
64932;SDS011;51446;53.850;10.662;2023-03-29T01:58:43;8.43;;;4.60;;
64932;SDS011;51446;53.850;10.662;2023-03-29T02:01:12;5.10;;;4.30;;
64932;SDS011;51446;53.850;10.662;2023-03-29T02:03:43;9.10;;;4.38;;
64932;SDS011;51446;53.850;10.662;2023-03-29T02:06:13;10.65;;;4.82;;
64932;SDS011;51446;53.850;10.662;2023-03-29T02:08:42;6.90;;;4.55;;
64932;SDS011;51446;53.850;10.662;2023-03-29T02:11:09;7.75;;;4.88;;
64932;SDS011;51446;53.850;10.662;2023-03-29T02:13:34;7.63;;;4.50;;
64932;SDS011;51446;53.850;10.662;2023-03-29T02:15:59;7.43;;;4.80;;
64932;SDS011;51446;53.850;10.662;2023-03-29T02:18:27;6.40;;;4.32;;
64932;SDS011;51446;53.850;10.662;2023-03-29T02:20:53;7.18;;;4.72;;
64932;SDS011;51446;53.850;10.662;2023-03-29T02:25:58;7.95;;;4.63;;
64932;SDS011;51446;53.850;10.662;2023-03-29T02:28:24;7.03;;;5.05;;
64932;SDS011;51446;53.850;10.662;2023-03-29T02:31:25;7.72;;;3.95;;
64932;SDS011;51446;53.850;10.662;2023-03-29T02:33:57;9.43;;;4.43;;
64932;SDS011;51446;53.850;10.662;2023-03-29T02:36:32;6.67;;;4.00;;
64932;SDS011;51446;53.850;10.662;2023-03-29T02:39:02;7.70;;;4.10;;
64932;SDS011;51446;53.850;10.662;2023-03-29T02:41:29;12.30;;;4.28;;
64932;SDS011;51446;53.850;10.662;2023-03-29T02:43:55;6.75;;;3.80;;
64932;SDS011;51446;53.850;10.662;2023-03-29T02:46:23;9.98;;;4.30;;
64932;SDS011;51446;53.850;10.662;2023-03-29T02:48:50;6.27;;;4.07;;
64932;SDS011;51446;53.850;10.662;2023-03-29T02:51:18;6.75;;;3.78;;
64932;SDS011;51446;53.850;10.662;2023-03-29T02:53:51;12.18;;;4.63;;
64932;SDS011;51446;53.850;10.662;2023-03-29T02:56:40;6.22;;;3.90;;
64932;SDS011;51446;53.850;10.662;2023-03-29T02:59:13;7.95;;;3.92;;
64932;SDS011;51446;53.850;10.662;2023-03-29T03:01:40;8.37;;;4.30;;
64932;SDS011;51446;53.850;10.662;2023-03-29T03:04:06;6.97;;;4.05;;
64932;SDS011;51446;53.850;10.662;2023-03-29T03:06:33;7.93;;;3.40;;
64932;SDS011;51446;53.850;10.662;2023-03-29T03:09:00;5.60;;;3.30;;
64932;SDS011;51446;53.850;10.662;2023-03-29T03:11:26;11.17;;;4.37;;
64932;SDS011;51446;53.850;10.662;2023-03-29T03:13:51;6.57;;;3.20;;
64932;SDS011;51446;53.850;10.662;2023-03-29T03:16:16;7.23;;;4.00;;
64932;SDS011;51446;53.850;10.662;2023-03-29T03:18:41;6.67;;;3.60;;
64932;SDS011;51446;53.850;10.662;2023-03-29T03:21:07;4.03;;;3.63;;
64932;SDS011;51446;53.850;10.662;2023-03-29T03:23:33;8.70;;;3.92;;
64932;SDS011;51446;53.850;10.662;2023-03-29T03:25:59;7.40;;;4.22;;
64932;SDS011;51446;53.850;10.662;2023-03-29T03:28:24;8.60;;;3.63;;
64932;SDS011;51446;53.850;10.662;2023-03-29T03:30:51;9.80;;;4.10;;
64932;SDS011;51446;53.850;10.662;2023-03-29T03:33:16;7.13;;;3.70;;
64932;SDS011;51446;53.850;10.662;2023-03-29T03:35:43;5.70;;;3.78;;
64932;SDS011;51446;53.850;10.662;2023-03-29T03:38:10;7.20;;;4.30;;
64932;SDS011;51446;53.850;10.662;2023-03-29T03:40:35;5.93;;;3.90;;
64932;SDS011;51446;53.850;10.662;2023-03-29T03:43:00;8.47;;;3.70;;
64932;SDS011;51446;53.850;10.662;2023-03-29T03:45:26;6.00;;;3.70;;
64932;SDS011;51446;53.850;10.662;2023-03-29T03:47:51;9.40;;;3.77;;
64932;SDS011;51446;53.850;10.662;2023-03-29T03:50:16;7.93;;;3.77;;
64932;SDS011;51446;53.850;10.662;2023-03-29T03:52:42;5.22;;;3.45;;
64932;SDS011;51446;53.850;10.662;2023-03-29T03:55:07;9.57;;;3.80;;
64932;SDS011;51446;53.850;10.662;2023-03-29T03:57:33;8.33;;;3.93;;
64932;SDS011;51446;53.850;10.662;2023-03-29T04:00:01;7.35;;;4.28;;
64932;SDS011;51446;53.850;10.662;2023-03-29T04:02:40;5.80;;;3.42;;
64932;SDS011;51446;53.850;10.662;2023-03-29T04:05:06;5.00;;;3.57;;
64932;SDS011;51446;53.850;10.662;2023-03-29T04:07:32;10.17;;;3.60;;
64932;SDS011;51446;53.850;10.662;2023-03-29T04:09:58;6.28;;;4.32;;
64932;SDS011;51446;53.850;10.662;2023-03-29T04:12:23;4.93;;;3.33;;
64932;SDS011;51446;53.850;10.662;2023-03-29T04:14:49;6.55;;;3.35;;
64932;SDS011;51446;53.850;10.662;2023-03-29T04:17:14;6.43;;;3.40;;
64932;SDS011;51446;53.850;10.662;2023-03-29T04:19:40;6.90;;;3.97;;
64932;SDS011;51446;53.850;10.662;2023-03-29T04:22:05;11.53;;;4.33;;
64932;SDS011;51446;53.850;10.662;2023-03-29T04:24:30;8.37;;;3.80;;
64932;SDS011;51446;53.850;10.662;2023-03-29T04:26:55;7.20;;;4.00;;
64932;SDS011;51446;53.850;10.662;2023-03-29T04:29:21;5.73;;;3.70;;
64932;SDS011;51446;53.850;10.662;2023-03-29T04:31:46;8.87;;;4.00;;
64932;SDS011;51446;53.850;10.662;2023-03-29T04:34:12;11.57;;;4.13;;
64932;SDS011;51446;53.850;10.662;2023-03-29T04:36:37;9.53;;;4.13;;
64932;SDS011;51446;53.850;10.662;2023-03-29T04:39:02;9.23;;;3.90;;
64932;SDS011;51446;53.850;10.662;2023-03-29T04:41:28;5.50;;;3.80;;
64932;SDS011;51446;53.850;10.662;2023-03-29T04:43:53;6.20;;;3.40;;
64932;SDS011;51446;53.850;10.662;2023-03-29T04:46:20;8.68;;;4.25;;
64932;SDS011;51446;53.850;10.662;2023-03-29T04:48:46;9.32;;;3.92;;
64932;SDS011;51446;53.850;10.662;2023-03-29T04:51:11;11.10;;;4.07;;
64932;SDS011;51446;53.850;10.662;2023-03-29T04:53:36;10.33;;;3.60;;
64932;SDS011;51446;53.850;10.662;2023-03-29T04:56:02;8.90;;;4.10;;
64932;SDS011;51446;53.850;10.662;2023-03-29T04:58:27;7.75;;;3.33;;
64932;SDS011;51446;53.850;10.662;2023-03-29T05:00:55;13.60;;;4.40;;
64932;SDS011;51446;53.850;10.662;2023-03-29T05:03:22;8.00;;;4.23;;
64932;SDS011;51446;53.850;10.662;2023-03-29T05:05:47;6.43;;;4.00;;
64932;SDS011;51446;53.850;10.662;2023-03-29T05:08:13;12.53;;;5.20;;
64932;SDS011;51446;53.850;10.662;2023-03-29T05:10:40;6.77;;;3.60;;
64932;SDS011;51446;53.850;10.662;2023-03-29T05:13:07;6.25;;;3.40;;
64932;SDS011;51446;53.850;10.662;2023-03-29T05:15:32;7.70;;;4.50;;
64932;SDS011;51446;53.850;10.662;2023-03-29T05:17:58;11.97;;;3.80;;
64932;SDS011;51446;53.850;10.662;2023-03-29T05:20:24;5.35;;;4.35;;
64932;SDS011;51446;53.850;10.662;2023-03-29T05:22:50;8.15;;;3.90;;
64932;SDS011;51446;53.850;10.662;2023-03-29T05:25:16;10.70;;;3.80;;
64932;SDS011;51446;53.850;10.662;2023-03-29T05:27:42;10.02;;;3.88;;
64932;SDS011;51446;53.850;10.662;2023-03-29T05:30:09;6.53;;;3.85;;
64932;SDS011;51446;53.850;10.662;2023-03-29T05:32:36;6.60;;;4.30;;
64932;SDS011;51446;53.850;10.662;2023-03-29T05:35:02;9.70;;;4.20;;
64932;SDS011;51446;53.850;10.662;2023-03-29T05:37:28;7.18;;;3.90;;
64932;SDS011;51446;53.850;10.662;2023-03-29T05:39:53;8.57;;;4.20;;
64932;SDS011;51446;53.850;10.662;2023-03-29T05:42:18;9.00;;;4.13;;
64932;SDS011;51446;53.850;10.662;2023-03-29T05:44:46;6.30;;;4.00;;
64932;SDS011;51446;53.850;10.662;2023-03-29T05:47:12;9.30;;;3.67;;
64932;SDS011;51446;53.850;10.662;2023-03-29T05:49:37;6.95;;;3.65;;
64932;SDS011;51446;53.850;10.662;2023-03-29T05:52:03;7.47;;;3.97;;
64932;SDS011;51446;53.850;10.662;2023-03-29T05:54:28;5.70;;;4.17;;
64932;SDS011;51446;53.850;10.662;2023-03-29T05:56:53;5.33;;;3.83;;
64932;SDS011;51446;53.850;10.662;2023-03-29T05:59:19;5.50;;;4.27;;
64932;SDS011;51446;53.850;10.662;2023-03-29T06:01:44;14.23;;;4.57;;
64932;SDS011;51446;53.850;10.662;2023-03-29T06:04:12;8.80;;;3.88;;
64932;SDS011;51446;53.850;10.662;2023-03-29T06:06:39;4.90;;;3.78;;
64932;SDS011;51446;53.850;10.662;2023-03-29T06:09:05;7.03;;;4.20;;
64932;SDS011;51446;53.850;10.662;2023-03-29T06:11:31;7.23;;;4.07;;
64932;SDS011;51446;53.850;10.662;2023-03-29T06:13:57;9.18;;;4.28;;
64932;SDS011;51446;53.850;10.662;2023-03-29T06:16:22;8.87;;;4.20;;
64932;SDS011;51446;53.850;10.662;2023-03-29T06:18:49;7.05;;;4.07;;
64932;SDS011;51446;53.850;10.662;2023-03-29T06:21:14;7.47;;;4.27;;
64932;SDS011;51446;53.850;10.662;2023-03-29T06:23:40;7.00;;;4.32;;
64932;SDS011;51446;53.850;10.662;2023-03-29T06:26:06;9.87;;;4.50;;
64932;SDS011;51446;53.850;10.662;2023-03-29T06:28:31;6.20;;;4.50;;
64932;SDS011;51446;53.850;10.662;2023-03-29T06:30:57;6.93;;;4.30;;
64932;SDS011;51446;53.850;10.662;2023-03-29T06:33:27;6.73;;;4.07;;
64932;SDS011;51446;53.850;10.662;2023-03-29T06:35:53;10.75;;;4.65;;
64932;SDS011;51446;53.850;10.662;2023-03-29T06:38:18;6.00;;;4.10;;
64932;SDS011;51446;53.850;10.662;2023-03-29T06:40:44;7.57;;;4.30;;
64932;SDS011;51446;53.850;10.662;2023-03-29T06:43:11;9.18;;;4.50;;
64932;SDS011;51446;53.850;10.662;2023-03-29T06:45:37;10.65;;;4.55;;
64932;SDS011;51446;53.850;10.662;2023-03-29T06:48:03;10.57;;;5.23;;
64932;SDS011;51446;53.850;10.662;2023-03-29T06:50:29;6.55;;;4.45;;
64932;SDS011;51446;53.850;10.662;2023-03-29T06:52:55;6.20;;;4.30;;
64932;SDS011;51446;53.850;10.662;2023-03-29T06:55:21;7.55;;;4.40;;
64932;SDS011;51446;53.850;10.662;2023-03-29T06:57:47;8.27;;;5.13;;
64932;SDS011;51446;53.850;10.662;2023-03-29T07:00:13;8.33;;;5.17;;
64932;SDS011;51446;53.850;10.662;2023-03-29T07:02:43;8.55;;;4.30;;
64932;SDS011;51446;53.850;10.662;2023-03-29T07:05:12;8.70;;;4.38;;
64932;SDS011;51446;53.850;10.662;2023-03-29T07:07:38;8.67;;;4.60;;
64932;SDS011;51446;53.850;10.662;2023-03-29T07:10:19;8.77;;;4.90;;
64932;SDS011;51446;53.850;10.662;2023-03-29T07:12:46;8.07;;;5.07;;
64932;SDS011;51446;53.850;10.662;2023-03-29T07:15:12;11.55;;;5.03;;
64932;SDS011;51446;53.850;10.662;2023-03-29T07:17:37;12.67;;;4.80;;
64932;SDS011;51446;53.850;10.662;2023-03-29T07:20:03;7.97;;;4.60;;
64932;SDS011;51446;53.850;10.662;2023-03-29T07:22:33;11.27;;;5.40;;
64932;SDS011;51446;53.850;10.662;2023-03-29T07:24:58;5.87;;;4.67;;
64932;SDS011;51446;53.850;10.662;2023-03-29T07:27:24;8.52;;;5.20;;
64932;SDS011;51446;53.850;10.662;2023-03-29T07:29:50;9.27;;;5.00;;
64932;SDS011;51446;53.850;10.662;2023-03-29T07:32:16;7.33;;;4.73;;
64932;SDS011;51446;53.850;10.662;2023-03-29T07:34:41;10.97;;;5.10;;
64932;SDS011;51446;53.850;10.662;2023-03-29T07:37:06;8.68;;;4.78;;
64932;SDS011;51446;53.850;10.662;2023-03-29T07:39:33;8.97;;;5.20;;
64932;SDS011;51446;53.850;10.662;2023-03-29T07:41:59;8.35;;;5.53;;
64932;SDS011;51446;53.850;10.662;2023-03-29T07:44:24;9.57;;;5.37;;
64932;SDS011;51446;53.850;10.662;2023-03-29T07:46:50;10.35;;;5.00;;
64932;SDS011;51446;53.850;10.662;2023-03-29T07:49:16;8.47;;;4.70;;
64932;SDS011;51446;53.850;10.662;2023-03-29T07:51:41;7.47;;;5.10;;
64932;SDS011;51446;53.850;10.662;2023-03-29T07:54:07;8.07;;;5.20;;
64932;SDS011;51446;53.850;10.662;2023-03-29T07:56:32;10.90;;;4.97;;
64932;SDS011;51446;53.850;10.662;2023-03-29T07:58:58;7.53;;;4.90;;
64932;SDS011;51446;53.850;10.662;2023-03-29T08:01:23;8.87;;;5.30;;
64932;SDS011;51446;53.850;10.662;2023-03-29T08:03:49;9.68;;;5.35;;
64932;SDS011;51446;53.850;10.662;2023-03-29T08:06:14;9.40;;;5.10;;
64932;SDS011;51446;53.850;10.662;2023-03-29T08:08:40;6.53;;;4.70;;
64932;SDS011;51446;53.850;10.662;2023-03-29T08:11:06;10.83;;;5.27;;
64932;SDS011;51446;53.850;10.662;2023-03-29T08:13:32;6.13;;;5.20;;
64932;SDS011;51446;53.850;10.662;2023-03-29T08:15:58;10.13;;;4.67;;
64932;SDS011;51446;53.850;10.662;2023-03-29T08:18:24;6.57;;;4.80;;
64932;SDS011;51446;53.850;10.662;2023-03-29T08:20:49;7.60;;;4.83;;
64932;SDS011;51446;53.850;10.662;2023-03-29T08:23:15;8.20;;;5.00;;
64932;SDS011;51446;53.850;10.662;2023-03-29T08:25:41;8.67;;;5.20;;
64932;SDS011;51446;53.850;10.662;2023-03-29T08:28:06;9.83;;;4.20;;
64932;SDS011;51446;53.850;10.662;2023-03-29T08:30:31;5.80;;;4.27;;
64932;SDS011;51446;53.850;10.662;2023-03-29T08:32:57;8.63;;;3.90;;
64932;SDS011;51446;53.850;10.662;2023-03-29T08:35:22;7.30;;;4.20;;
64932;SDS011;51446;53.850;10.662;2023-03-29T08:37:48;6.53;;;3.92;;
64932;SDS011;51446;53.850;10.662;2023-03-29T08:40:18;6.70;;;4.57;;
64932;SDS011;51446;53.850;10.662;2023-03-29T08:51:43;7.10;;;4.40;;
64932;SDS011;51446;53.850;10.662;2023-03-29T08:54:08;8.93;;;4.25;;
64932;SDS011;51446;53.850;10.662;2023-03-29T08:56:39;4.75;;;3.80;;
64932;SDS011;51446;53.850;10.662;2023-03-29T08:59:19;6.57;;;4.27;;
64932;SDS011;51446;53.850;10.662;2023-03-29T09:01:49;7.38;;;4.22;;
64932;SDS011;51446;53.850;10.662;2023-03-29T09:04:19;6.60;;;4.05;;
64932;SDS011;51446;53.850;10.662;2023-03-29T09:06:49;7.20;;;4.22;;
64932;SDS011;51446;53.850;10.662;2023-03-29T09:09:16;6.30;;;4.50;;
64932;SDS011;51446;53.850;10.662;2023-03-29T09:14:34;5.07;;;4.40;;
64932;SDS011;51446;53.850;10.662;2023-03-29T09:22:55;7.53;;;4.63;;
64932;SDS011;51446;53.850;10.662;2023-03-29T09:25:28;7.22;;;4.50;;
64932;SDS011;51446;53.850;10.662;2023-03-29T09:28:17;5.32;;;4.03;;
64932;SDS011;51446;53.850;10.662;2023-03-29T09:30:50;6.73;;;4.40;;
64932;SDS011;51446;53.850;10.662;2023-03-29T09:33:24;7.82;;;4.13;;
64932;SDS011;51446;53.850;10.662;2023-03-29T09:36:03;8.30;;;4.20;;
64932;SDS011;51446;53.850;10.662;2023-03-29T09:38:36;6.53;;;4.40;;
64932;SDS011;51446;53.850;10.662;2023-03-29T09:41:18;6.68;;;4.45;;
64932;SDS011;51446;53.850;10.662;2023-03-29T09:43:46;6.67;;;4.33;;
64932;SDS011;51446;53.850;10.662;2023-03-29T09:46:21;9.50;;;4.32;;
64932;SDS011;51446;53.850;10.662;2023-03-29T09:48:50;8.77;;;4.25;;
64932;SDS011;51446;53.850;10.662;2023-03-29T09:51:18;7.72;;;4.07;;
64932;SDS011;51446;53.850;10.662;2023-03-29T09:53:46;5.38;;;4.40;;
64932;SDS011;51446;53.850;10.662;2023-03-29T09:56:12;6.37;;;3.97;;
64932;SDS011;51446;53.850;10.662;2023-03-29T09:58:39;4.88;;;4.25;;
64932;SDS011;51446;53.850;10.662;2023-03-29T10:01:10;6.68;;;4.22;;
64932;SDS011;51446;53.850;10.662;2023-03-29T10:03:39;5.68;;;4.20;;
64932;SDS011;51446;53.850;10.662;2023-03-29T10:06:05;7.63;;;3.83;;
64932;SDS011;51446;53.850;10.662;2023-03-29T10:08:35;5.57;;;3.78;;
64932;SDS011;51446;53.850;10.662;2023-03-29T10:11:18;8.43;;;3.80;;
64932;SDS011;51446;53.850;10.662;2023-03-29T10:13:46;5.70;;;3.67;;
64932;SDS011;51446;53.850;10.662;2023-03-29T10:16:27;4.68;;;3.90;;
64932;SDS011;51446;53.850;10.662;2023-03-29T10:18:53;8.23;;;4.37;;
64932;SDS011;51446;53.850;10.662;2023-03-29T10:21:19;8.07;;;4.68;;
64932;SDS011;51446;53.850;10.662;2023-03-29T10:23:46;7.80;;;3.90;;
64932;SDS011;51446;53.850;10.662;2023-03-29T10:26:17;11.85;;;4.40;;
64932;SDS011;51446;53.850;10.662;2023-03-29T10:28:49;10.10;;;4.15;;
64932;SDS011;51446;53.850;10.662;2023-03-29T10:31:17;4.22;;;3.83;;
64932;SDS011;51446;53.850;10.662;2023-03-29T10:33:49;6.20;;;3.65;;
64932;SDS011;51446;53.850;10.662;2023-03-29T10:36:17;5.13;;;3.73;;
64932;SDS011;51446;53.850;10.662;2023-03-29T10:38:43;7.97;;;4.07;;
64932;SDS011;51446;53.850;10.662;2023-03-29T10:41:09;5.72;;;3.75;;
64932;SDS011;51446;53.850;10.662;2023-03-29T10:43:46;7.03;;;4.38;;
64932;SDS011;51446;53.850;10.662;2023-03-29T10:48:49;5.47;;;4.13;;
64932;SDS011;51446;53.850;10.662;2023-03-29T10:51:16;8.02;;;3.80;;
64932;SDS011;51446;53.850;10.662;2023-03-29T10:53:42;9.27;;;3.77;;
64932;SDS011;51446;53.850;10.662;2023-03-29T11:04:41;6.85;;;3.50;;
64932;SDS011;51446;53.850;10.662;2023-03-29T11:07:18;5.55;;;3.75;;
64932;SDS011;51446;53.850;10.662;2023-03-29T11:12:47;4.20;;;3.50;;
64932;SDS011;51446;53.850;10.662;2023-03-29T11:21:00;5.75;;;3.40;;
64932;SDS011;51446;53.850;10.662;2023-03-29T11:26:01;5.50;;;3.40;;
64932;SDS011;51446;53.850;10.662;2023-03-29T11:28:38;6.22;;;4.07;;
64932;SDS011;51446;53.850;10.662;2023-03-29T11:31:21;5.75;;;3.75;;
64932;SDS011;51446;53.850;10.662;2023-03-29T11:34:01;4.28;;;3.80;;
64932;SDS011;51446;53.850;10.662;2023-03-29T11:36:51;6.97;;;3.92;;
64932;SDS011;51446;53.850;10.662;2023-03-29T11:42:08;6.50;;;3.70;;
64932;SDS011;51446;53.850;10.662;2023-03-29T11:44:41;5.45;;;4.20;;
64932;SDS011;51446;53.850;10.662;2023-03-29T11:49:43;5.07;;;3.60;;
64932;SDS011;51446;53.850;10.662;2023-03-29T11:52:29;7.43;;;3.80;;
64932;SDS011;51446;53.850;10.662;2023-03-29T11:55:01;9.23;;;4.18;;
64932;SDS011;51446;53.850;10.662;2023-03-29T11:57:42;5.32;;;3.90;;
64932;SDS011;51446;53.850;10.662;2023-03-29T12:00:17;5.53;;;3.78;;
64932;SDS011;51446;53.850;10.662;2023-03-29T12:02:52;6.72;;;3.78;;
64932;SDS011;51446;53.850;10.662;2023-03-29T12:05:35;6.53;;;3.73;;
64932;SDS011;51446;53.850;10.662;2023-03-29T12:08:02;8.90;;;4.03;;
64932;SDS011;51446;53.850;10.662;2023-03-29T12:10:39;8.55;;;3.92;;
64932;SDS011;51446;53.850;10.662;2023-03-29T12:13:15;6.70;;;3.65;;
64932;SDS011;51446;53.850;10.662;2023-03-29T12:15:47;5.00;;;3.97;;
64932;SDS011;51446;53.850;10.662;2023-03-29T12:18:23;9.60;;;4.40;;
64932;SDS011;51446;53.850;10.662;2023-03-29T12:20:52;5.60;;;4.28;;
64932;SDS011;51446;53.850;10.662;2023-03-29T12:23:22;5.93;;;4.13;;
64932;SDS011;51446;53.850;10.662;2023-03-29T12:26:04;6.13;;;3.73;;
64932;SDS011;51446;53.850;10.662;2023-03-29T12:31:53;8.32;;;4.40;;
64932;SDS011;51446;53.850;10.662;2023-03-29T12:39:46;7.50;;;3.95;;
64932;SDS011;51446;53.850;10.662;2023-03-29T12:44:50;7.30;;;4.10;;
64932;SDS011;51446;53.850;10.662;2023-03-29T12:47:22;8.85;;;4.60;;
64932;SDS011;51446;53.850;10.662;2023-03-29T12:49:51;6.40;;;4.30;;
64932;SDS011;51446;53.850;10.662;2023-03-29T12:52:22;7.60;;;4.20;;
64932;SDS011;51446;53.850;10.662;2023-03-29T12:54:55;6.63;;;4.57;;
64932;SDS011;51446;53.850;10.662;2023-03-29T12:57:39;5.78;;;4.00;;
64932;SDS011;51446;53.850;10.662;2023-03-29T13:00:25;7.30;;;4.30;;
64932;SDS011;51446;53.850;10.662;2023-03-29T13:03:00;7.57;;;3.70;;
64932;SDS011;51446;53.850;10.662;2023-03-29T13:05:33;8.68;;;4.22;;
64932;SDS011;51446;53.850;10.662;2023-03-29T13:08:10;7.05;;;4.30;;
64932;SDS011;51446;53.850;10.662;2023-03-29T13:10:50;6.97;;;4.68;;
64932;SDS011;51446;53.850;10.662;2023-03-29T13:13:20;8.77;;;4.60;;
64932;SDS011;51446;53.850;10.662;2023-03-29T13:15:50;8.63;;;4.53;;
64932;SDS011;51446;53.850;10.662;2023-03-29T13:18:27;7.72;;;4.35;;
64932;SDS011;51446;53.850;10.662;2023-03-29T13:21:15;6.13;;;4.10;;
64932;SDS011;51446;53.850;10.662;2023-03-29T13:29:22;6.97;;;4.57;;
64932;SDS011;51446;53.850;10.662;2023-03-29T13:35:19;6.07;;;4.40;;
64932;SDS011;51446;53.850;10.662;2023-03-29T13:40:43;7.38;;;5.00;;
64932;SDS011;51446;53.850;10.662;2023-03-29T13:48:24;6.80;;;4.93;;
64932;SDS011;51446;53.850;10.662;2023-03-29T13:50:52;11.00;;;5.75;;
64932;SDS011;51446;53.850;10.662;2023-03-29T13:53:31;8.98;;;5.70;;
64932;SDS011;51446;53.850;10.662;2023-03-29T13:56:00;10.95;;;5.80;;
64932;SDS011;51446;53.850;10.662;2023-03-29T13:58:35;8.90;;;5.55;;
64932;SDS011;51446;53.850;10.662;2023-03-29T14:01:26;9.10;;;5.53;;
64932;SDS011;51446;53.850;10.662;2023-03-29T14:04:03;8.35;;;5.35;;
64932;SDS011;51446;53.850;10.662;2023-03-29T14:06:31;8.73;;;5.80;;
64932;SDS011;51446;53.850;10.662;2023-03-29T14:09:01;6.93;;;5.55;;
64932;SDS011;51446;53.850;10.662;2023-03-29T14:11:30;6.43;;;4.85;;
64932;SDS011;51446;53.850;10.662;2023-03-29T14:14:02;7.50;;;5.60;;
64932;SDS011;51446;53.850;10.662;2023-03-29T14:16:33;9.93;;;5.68;;
64932;SDS011;51446;53.850;10.662;2023-03-29T14:19:01;10.48;;;5.82;;
64932;SDS011;51446;53.850;10.662;2023-03-29T14:21:37;6.05;;;4.85;;
64932;SDS011;51446;53.850;10.662;2023-03-29T14:24:07;7.20;;;5.20;;
64932;SDS011;51446;53.850;10.662;2023-03-29T14:26:36;8.00;;;5.43;;
64932;SDS011;51446;53.850;10.662;2023-03-29T14:29:05;6.30;;;5.20;;
64932;SDS011;51446;53.850;10.662;2023-03-29T14:31:32;10.40;;;5.40;;
64932;SDS011;51446;53.850;10.662;2023-03-29T14:33:59;7.97;;;5.40;;
64932;SDS011;51446;53.850;10.662;2023-03-29T14:36:27;6.37;;;5.47;;
64932;SDS011;51446;53.850;10.662;2023-03-29T14:38:59;6.75;;;5.38;;
64932;SDS011;51446;53.850;10.662;2023-03-29T14:41:32;7.55;;;5.28;;
64932;SDS011;51446;53.850;10.662;2023-03-29T14:43:59;9.07;;;5.65;;
64932;SDS011;51446;53.850;10.662;2023-03-29T14:46:27;6.90;;;5.10;;
64932;SDS011;51446;53.850;10.662;2023-03-29T14:48:52;8.63;;;5.00;;
64932;SDS011;51446;53.850;10.662;2023-03-29T14:51:19;9.13;;;5.07;;
64932;SDS011;51446;53.850;10.662;2023-03-29T14:53:47;10.05;;;5.30;;
64932;SDS011;51446;53.850;10.662;2023-03-29T14:56:14;10.93;;;5.40;;
64932;SDS011;51446;53.850;10.662;2023-03-29T14:58:45;8.05;;;5.30;;
64932;SDS011;51446;53.850;10.662;2023-03-29T15:01:16;9.10;;;6.35;;
64932;SDS011;51446;53.850;10.662;2023-03-29T15:03:51;9.18;;;6.10;;
64932;SDS011;51446;53.850;10.662;2023-03-29T15:06:21;10.65;;;7.05;;
64932;SDS011;51446;53.850;10.662;2023-03-29T15:08:48;8.70;;;6.30;;
64932;SDS011;51446;53.850;10.662;2023-03-29T15:11:17;9.77;;;6.65;;
64932;SDS011;51446;53.850;10.662;2023-03-29T15:13:45;8.80;;;6.82;;
64932;SDS011;51446;53.850;10.662;2023-03-29T15:16:12;9.95;;;6.97;;
64932;SDS011;51446;53.850;10.662;2023-03-29T15:18:40;8.32;;;6.75;;
64932;SDS011;51446;53.850;10.662;2023-03-29T15:21:07;9.50;;;7.10;;
64932;SDS011;51446;53.850;10.662;2023-03-29T15:23:37;7.88;;;6.32;;
64932;SDS011;51446;53.850;10.662;2023-03-29T15:26:18;10.23;;;7.10;;
64932;SDS011;51446;53.850;10.662;2023-03-29T15:29:04;11.13;;;6.90;;
64932;SDS011;51446;53.850;10.662;2023-03-29T15:31:35;9.35;;;6.45;;
64932;SDS011;51446;53.850;10.662;2023-03-29T15:34:06;12.70;;;7.30;;
64932;SDS011;51446;53.850;10.662;2023-03-29T15:36:40;10.18;;;7.05;;
64932;SDS011;51446;53.850;10.662;2023-03-29T15:39:09;7.60;;;6.18;;
64932;SDS011;51446;53.850;10.662;2023-03-29T15:41:36;8.98;;;6.97;;
64932;SDS011;51446;53.850;10.662;2023-03-29T15:44:02;9.57;;;7.07;;
64932;SDS011;51446;53.850;10.662;2023-03-29T15:46:27;10.07;;;6.90;;
64932;SDS011;51446;53.850;10.662;2023-03-29T15:48:52;8.70;;;6.63;;
64932;SDS011;51446;53.850;10.662;2023-03-29T15:51:17;7.63;;;6.50;;
64932;SDS011;51446;53.850;10.662;2023-03-29T15:53:43;8.73;;;6.20;;
64932;SDS011;51446;53.850;10.662;2023-03-29T15:56:08;9.60;;;6.63;;
64932;SDS011;51446;53.850;10.662;2023-03-29T15:58:39;6.82;;;6.10;;
64932;SDS011;51446;53.850;10.662;2023-03-29T16:01:09;7.67;;;6.50;;
64932;SDS011;51446;53.850;10.662;2023-03-29T16:03:47;9.02;;;6.30;;
64932;SDS011;51446;53.850;10.662;2023-03-29T16:06:13;8.93;;;6.80;;
64932;SDS011;51446;53.850;10.662;2023-03-29T16:08:38;7.73;;;6.70;;
64932;SDS011;51446;53.850;10.662;2023-03-29T16:11:05;10.38;;;6.72;;
64932;SDS011;51446;53.850;10.662;2023-03-29T16:13:30;9.30;;;6.70;;
64932;SDS011;51446;53.850;10.662;2023-03-29T16:15:56;8.40;;;6.73;;